Faro, Portugal

5:18 AM WEST on August 31, 2016 (GMT +0100)
Faro | | Change Station

Elev 26 ft 37.01 °N, 7.97 °W | Updated 18 minutes ago

Clear
Clear
68 °F
Feels Like 68 °F
N
5
Wind Variable Wind from NW

Today
High -- | Low -- °F
--% Chance of Precip.
Yesterday
High -- | Low -- °F
Precip. -- in
Pressure 30.01 in
Visibility -9999.0 miles
Clouds
Dew Point 55 °F
Humidity 64%
Rainfall 0.00 in
Snow Depth Not available.
7:02 AM 8:01 PM
Waning Crescent, 2% visible
METAR LPFR 310400Z 31004KT CAVOK 20/13 Q1016
Pressure 30.01 in
Visibility -9999.0 miles
Clouds
Dew Point 55 °F
Humidity 64%
Rainfall 0.00 in
Snow Depth Not available.
7:02 AM 8:01 PM
Waning Crescent, 2% visible
METAR LPFR 310400Z 31004KT CAVOK 20/13 Q1016

10-Day Weather Forecast

×

Almanac

Astronomy

Aug. 31, 2016 Rise Set
Actual Time
Civil Twilight
Nautical Twilight
Astronomical Twilight
Moon
Length of Visible Light
Length of Day
Tomorrow will be .
, % of the Moon is Illuminated

Today's Extremes

Country Highs Country Lows

Community

WunderPhotos

Upload Photos

1,936,032 photos uploaded!

WunderBlog® & News

Nearby

Air Quality

  Air Quality AQ Index Pollutant
Not available.

Snow Depth

Station Depth Elevation

Earthquake Activity

City Distance Mag. Time & Date
Minimum magnitude displayed is 2.5.

Coastal Water Temperatures

Place Temperature

Stations

Nearby Weather Stations

Station Location Temp. Windchill Dew Point Humidity Wind Precip. Elev Updated Type